Terminal Aerodrome Forecast
Issued by NWS Austin/San Antonio, TX

Home | Current Version | Previous Version | Text Only | Print | Product List | Glossary On
Versions: 1 2 3 4 5 6 7 8 9 10 11 12 13
000
FTUS44 KEWX 221100
TAFAUS
TAF
KAUS 221136Z 2212/2318 VRB04KT P6SM SCT025 BKN150
     FM221800 09006KT P6SM SCT040 BKN150
     FM230700 VRB03KT P6SM FEW035 BKN120=

USA.gov is the U.S. government's official web portal to all federal, state and local government web resources and services.